sensor_id;sensor_type;location;lat;lon;timestamp;pressure;altitude;pressure_sealevel;temperature;humidity
20620;BME280;10469;42.720;23.252;2023-03-18T01:20:44;95249.97;;;0.11;100.00
20620;BME280;10469;42.720;23.252;2023-03-18T01:23:10;95255.41;;;0.10;100.00
20620;BME280;10469;42.720;23.252;2023-03-18T01:25:37;95226.53;;;-0.16;100.00
20620;BME280;10469;42.720;23.252;2023-03-18T01:28:04;95252.28;;;0.14;100.00
20620;BME280;10469;42.720;23.252;2023-03-18T01:30:31;95248.50;;;0.09;100.00
20620;BME280;10469;42.720;23.252;2023-03-18T01:32:59;95192.06;;;-0.47;100.00
20620;BME280;10469;42.720;23.252;2023-03-18T01:35:25;95214.00;;;-0.22;100.00
20620;BME280;10469;42.720;23.252;2023-03-18T01:37:51;95254.56;;;-0.07;100.00
20620;BME280;10469;42.720;23.252;2023-03-18T01:40:18;95236.25;;;-0.17;100.00
20620;BME280;10469;42.720;23.252;2023-03-18T01:42:55;95242.19;;;-0.15;100.00
20620;BME280;10469;42.720;23.252;2023-03-18T01:45:27;95176.63;;;-0.85;100.00
20620;BME280;10469;42.720;23.252;2023-03-18T01:47:54;95244.56;;;-0.46;100.00
20620;BME280;10469;42.720;23.252;2023-03-18T01:50:31;95206.31;;;-0.66;100.00
20620;BME280;10469;42.720;23.252;2023-03-18T01:53:09;95235.28;;;-0.66;100.00
20620;BME280;10469;42.720;23.252;2023-03-18T01:55:36;95211.66;;;-0.84;100.00
20620;BME280;10469;42.720;23.252;2023-03-18T01:58:09;95223.25;;;-0.69;100.00
20620;BME280;10469;42.720;23.252;2023-03-18T02:00:52;95236.94;;;-0.57;100.00
20620;BME280;10469;42.720;23.252;2023-03-18T02:03:20;95210.19;;;-0.79;100.00
20620;BME280;10469;42.720;23.252;2023-03-18T02:05:48;95231.03;;;-0.59;100.00
20620;BME280;10469;42.720;23.252;2023-03-18T02:08:15;95222.13;;;-0.58;100.00
20620;BME280;10469;42.720;23.252;2023-03-18T02:10:41;95199.16;;;-0.90;100.00
20620;BME280;10469;42.720;23.252;2023-03-18T02:13:08;95227.72;;;-0.61;100.00
20620;BME280;10469;42.720;23.252;2023-03-18T02:15:39;95232.03;;;-0.60;100.00
20620;BME280;10469;42.720;23.252;2023-03-18T02:18:11;95224.47;;;-0.55;100.00
20620;BME280;10469;42.720;23.252;2023-03-18T02:26:24;95227.16;;;-0.39;100.00
20620;BME280;10469;42.720;23.252;2023-03-18T02:28:55;95228.47;;;-0.43;100.00
20620;BME280;10469;42.720;23.252;2023-03-18T02:31:23;95218.53;;;-0.49;100.00
20620;BME280;10469;42.720;23.252;2023-03-18T02:33:50;95215.06;;;-0.58;100.00
20620;BME280;10469;42.720;23.252;2023-03-18T02:36:23;95223.78;;;-0.57;100.00
20620;BME280;10469;42.720;23.252;2023-03-18T02:38:49;95217.06;;;-0.52;100.00
20620;BME280;10469;42.720;23.252;2023-03-18T02:41:20;95227.91;;;-0.55;100.00
20620;BME280;10469;42.720;23.252;2023-03-18T02:43:48;95216.84;;;-0.66;100.00
20620;BME280;10469;42.720;23.252;2023-03-18T02:48:52;95199.16;;;-0.90;100.00
20620;BME280;10469;42.720;23.252;2023-03-18T02:51:18;95229.28;;;-0.85;100.00
20620;BME280;10469;42.720;23.252;2023-03-18T02:53:46;95223.31;;;-0.95;100.00
20620;BME280;10469;42.720;23.252;2023-03-18T02:56:12;95224.63;;;-0.91;100.00
20620;BME280;10469;42.720;23.252;2023-03-18T02:58:39;95207.34;;;-0.93;100.00
20620;BME280;10469;42.720;23.252;2023-03-18T03:01:06;95227.63;;;-0.86;100.00
20620;BME280;10469;42.720;23.252;2023-03-18T03:03:33;95218.25;;;-1.14;100.00
20620;BME280;10469;42.720;23.252;2023-03-18T03:05:59;95212.47;;;-1.18;100.00
20620;BME280;10469;42.720;23.252;2023-03-18T03:08:25;95212.78;;;-1.21;100.00
20620;BME280;10469;42.720;23.252;2023-03-18T03:10:51;95216.28;;;-1.20;100.00
20620;BME280;10469;42.720;23.252;2023-03-18T03:13:18;95228.09;;;-1.24;100.00
20620;BME280;10469;42.720;23.252;2023-03-18T03:15:44;95208.16;;;-1.53;100.00
20620;BME280;10469;42.720;23.252;2023-03-18T03:18:09;95235.94;;;-1.33;100.00
20620;BME280;10469;42.720;23.252;2023-03-18T03:20:36;95232.41;;;-1.41;100.00
20620;BME280;10469;42.720;23.252;2023-03-18T03:23:09;95237.16;;;-1.45;100.00
20620;BME280;10469;42.720;23.252;2023-03-18T03:25:36;95238.44;;;-1.49;100.00
20620;BME280;10469;42.720;23.252;2023-03-18T03:28:03;95236.47;;;-1.47;100.00
20620;BME280;10469;42.720;23.252;2023-03-18T03:30:28;95240.91;;;-1.47;100.00
20620;BME280;10469;42.720;23.252;2023-03-18T03:32:54;95232.59;;;-1.35;100.00
20620;BME280;10469;42.720;23.252;2023-03-18T03:35:20;95238.09;;;-1.28;100.00
20620;BME280;10469;42.720;23.252;2023-03-18T03:37:46;95221.38;;;-1.45;100.00
20620;BME280;10469;42.720;23.252;2023-03-18T03:40:14;95248.38;;;-1.35;100.00
20620;BME280;10469;42.720;23.252;2023-03-18T03:42:41;95252.22;;;-1.29;100.00
20620;BME280;10469;42.720;23.252;2023-03-18T03:45:07;95232.31;;;-1.32;100.00
20620;BME280;10469;42.720;23.252;2023-03-18T03:47:33;95184.75;;;-1.64;100.00
20620;BME280;10469;42.720;23.252;2023-03-18T03:49:59;95233.94;;;-1.31;100.00
20620;BME280;10469;42.720;23.252;2023-03-18T03:52:25;95248.63;;;-1.28;100.00
20620;BME280;10469;42.720;23.252;2023-03-18T03:54:51;95257.38;;;-1.19;100.00
20620;BME280;10469;42.720;23.252;2023-03-18T03:57:17;95262.13;;;-1.23;100.00
20620;BME280;10469;42.720;23.252;2023-03-18T03:59:43;95249.63;;;-1.21;100.00
20620;BME280;10469;42.720;23.252;2023-03-18T04:02:08;95243.13;;;-1.35;100.00
20620;BME280;10469;42.720;23.252;2023-03-18T04:04:34;95247.72;;;-1.37;100.00
20620;BME280;10469;42.720;23.252;2023-03-18T04:07:00;95256.75;;;-1.39;100.00
20620;BME280;10469;42.720;23.252;2023-03-18T04:09:27;95257.78;;;-1.32;100.00
20620;BME280;10469;42.720;23.252;2023-03-18T04:11:53;95252.69;;;-1.34;100.00
20620;BME280;10469;42.720;23.252;2023-03-18T04:14:19;95264.41;;;-1.28;100.00
20620;BME280;10469;42.720;23.252;2023-03-18T04:16:45;95249.97;;;-1.24;100.00
20620;BME280;10469;42.720;23.252;2023-03-18T04:19:11;95259.25;;;-1.38;100.00
20620;BME280;10469;42.720;23.252;2023-03-18T04:21:37;95268.22;;;-1.22;100.00
20620;BME280;10469;42.720;23.252;2023-03-18T04:24:03;95263.94;;;-1.23;100.00
20620;BME280;10469;42.720;23.252;2023-03-18T04:26:29;95223.88;;;-1.61;100.00
20620;BME280;10469;42.720;23.252;2023-03-18T04:28:56;95273.75;;;-1.34;100.00
20620;BME280;10469;42.720;23.252;2023-03-18T04:31:23;95277.06;;;-1.49;100.00
20620;BME280;10469;42.720;23.252;2023-03-18T04:33:49;95267.94;;;-1.63;100.00
20620;BME280;10469;42.720;23.252;2023-03-18T04:36:15;95286.00;;;-1.60;100.00
20620;BME280;10469;42.720;23.252;2023-03-18T04:38:41;95268.88;;;-1.64;100.00
20620;BME280;10469;42.720;23.252;2023-03-18T04:41:07;95286.06;;;-1.52;100.00
20620;BME280;10469;42.720;23.252;2023-03-18T04:43:33;95270.78;;;-1.31;100.00
20620;BME280;10469;42.720;23.252;2023-03-18T04:45:59;95271.88;;;-1.15;100.00
20620;BME280;10469;42.720;23.252;2023-03-18T04:48:26;95297.81;;;-0.68;100.00
20620;BME280;10469;42.720;23.252;2023-03-18T04:50:54;95279.53;;;-0.70;100.00
20620;BME280;10469;42.720;23.252;2023-03-18T04:53:20;95302.38;;;0.06;100.00
20620;BME280;10469;42.720;23.252;2023-03-18T04:55:48;95279.16;;;0.91;100.00
20620;BME280;10469;42.720;23.252;2023-03-18T04:58:15;95288.84;;;1.71;100.00
20620;BME280;10469;42.720;23.252;2023-03-18T05:00:41;95279.91;;;2.34;100.00
20620;BME280;10469;42.720;23.252;2023-03-18T05:03:08;95283.44;;;2.72;100.00
20620;BME280;10469;42.720;23.252;2023-03-18T05:05:34;95291.78;;;2.61;100.00
20620;BME280;10469;42.720;23.252;2023-03-18T05:08:00;95249.78;;;2.12;100.00
20620;BME280;10469;42.720;23.252;2023-03-18T05:10:25;95261.97;;;2.44;100.00
20620;BME280;10469;42.720;23.252;2023-03-18T05:12:51;95266.97;;;2.39;100.00
20620;BME280;10469;42.720;23.252;2023-03-18T05:15:17;95241.38;;;2.92;100.00
20620;BME280;10469;42.720;23.252;2023-03-18T05:17:42;95265.78;;;4.06;100.00
20620;BME280;10469;42.720;23.252;2023-03-18T05:20:09;95273.75;;;3.91;100.00
20620;BME280;10469;42.720;23.252;2023-03-18T05:22:35;95276.28;;;5.28;100.00
20620;BME280;10469;42.720;23.252;2023-03-18T05:25:00;95274.31;;;6.06;100.00
20620;BME280;10469;42.720;23.252;2023-03-18T05:27:28;95268.94;;;4.16;100.00
20620;BME280;10469;42.720;23.252;2023-03-18T05:29:54;95271.34;;;4.11;100.00
20620;BME280;10469;42.720;23.252;2023-03-18T05:32:20;95274.34;;;5.15;100.00
20620;BME280;10469;42.720;23.252;2023-03-18T05:34:46;95270.44;;;5.11;100.00
20620;BME280;10469;42.720;23.252;2023-03-18T05:37:13;95270.78;;;4.01;100.00
20620;BME280;10469;42.720;23.252;2023-03-18T05:39:40;95269.00;;;5.37;100.00
20620;BME280;10469;42.720;23.252;2023-03-18T05:42:06;95270.84;;;5.43;100.00
20620;BME280;10469;42.720;23.252;2023-03-18T05:44:32;95269.34;;;4.56;100.00
20620;BME280;10469;42.720;23.252;2023-03-18T05:47:01;95273.44;;;3.50;100.00
20620;BME280;10469;42.720;23.252;2023-03-18T05:49:27;95285.81;;;4.66;100.00
20620;BME280;10469;42.720;23.252;2023-03-18T05:51:53;95299.34;;;4.93;100.00
20620;BME280;10469;42.720;23.252;2023-03-18T05:54:19;95293.63;;;3.81;100.00
20620;BME280;10469;42.720;23.252;2023-03-18T05:56:45;95295.13;;;4.19;100.00
20620;BME280;10469;42.720;23.252;2023-03-18T05:59:12;95292.72;;;2.45;100.00
20620;BME280;10469;42.720;23.252;2023-03-18T06:01:39;95313.84;;;1.60;100.00
20620;BME280;10469;42.720;23.252;2023-03-18T06:04:06;95296.31;;;0.38;100.00
20620;BME280;10469;42.720;23.252;2023-03-18T06:06:34;95308.28;;;-0.51;100.00
20620;BME280;10469;42.720;23.252;2023-03-18T06:09:02;95330.34;;;-0.52;100.00
20620;BME280;10469;42.720;23.252;2023-03-18T06:11:28;95321.19;;;-0.31;100.00
20620;BME280;10469;42.720;23.252;2023-03-18T06:13:54;95305.41;;;-0.23;100.00
20620;BME280;10469;42.720;23.252;2023-03-18T06:16:22;95265.00;;;-0.40;100.00
20620;BME280;10469;42.720;23.252;2023-03-18T06:18:47;95318.50;;;0.03;100.00
20620;BME280;10469;42.720;23.252;2023-03-18T06:21:14;95287.19;;;0.08;100.00
20620;BME280;10469;42.720;23.252;2023-03-18T06:23:39;95320.41;;;0.60;100.00
20620;BME280;10469;42.720;23.252;2023-03-18T06:26:05;95285.13;;;-0.31;100.00
20620;BME280;10469;42.720;23.252;2023-03-18T06:28:33;95319.44;;;0.61;100.00
20620;BME280;10469;42.720;23.252;2023-03-18T06:31:00;95272.41;;;0.89;100.00
20620;BME280;10469;42.720;23.252;2023-03-18T06:33:26;95263.69;;;1.83;100.00
20620;BME280;10469;42.720;23.252;2023-03-18T06:35:55;95312.34;;;2.28;100.00
20620;BME280;10469;42.720;23.252;2023-03-18T06:38:25;95298.06;;;3.21;100.00
20620;BME280;10469;42.720;23.252;2023-03-18T06:40:51;95275.88;;;3.51;100.00
20620;BME280;10469;42.720;23.252;2023-03-18T06:43:18;95289.69;;;3.62;100.00
20620;BME280;10469;42.720;23.252;2023-03-18T06:45:44;95256.91;;;3.10;100.00
20620;BME280;10469;42.720;23.252;2023-03-18T06:48:10;95267.66;;;5.19;100.00
20620;BME280;10469;42.720;23.252;2023-03-18T06:50:36;95285.44;;;6.23;100.00
20620;BME280;10469;42.720;23.252;2023-03-18T06:53:04;95261.81;;;5.72;100.00
20620;BME280;10469;42.720;23.252;2023-03-18T06:55:30;95260.97;;;4.16;100.00
20620;BME280;10469;42.720;23.252;2023-03-18T06:57:56;95276.28;;;3.99;100.00
20620;BME280;10469;42.720;23.252;2023-03-18T07:00:22;95286.81;;;4.08;100.00
20620;BME280;10469;42.720;23.252;2023-03-18T07:02:49;95282.59;;;2.95;100.00
20620;BME280;10469;42.720;23.252;2023-03-18T07:05:14;95287.66;;;3.78;100.00
20620;BME280;10469;42.720;23.252;2023-03-18T07:07:43;95264.38;;;3.59;100.00
20620;BME280;10469;42.720;23.252;2023-03-18T07:10:20;95278.25;;;3.32;100.00
20620;BME280;10469;42.720;23.252;2023-03-18T07:12:47;95273.28;;;5.72;100.00
20620;BME280;10469;42.720;23.252;2023-03-18T07:15:12;95272.41;;;5.59;100.00
20620;BME280;10469;42.720;23.252;2023-03-18T07:17:38;95273.44;;;5.58;100.00
20620;BME280;10469;42.720;23.252;2023-03-18T07:20:04;95276.22;;;5.21;100.00
20620;BME280;10469;42.720;23.252;2023-03-18T07:22:31;95273.25;;;4.60;100.00
20620;BME280;10469;42.720;23.252;2023-03-18T07:24:57;95277.88;;;3.64;100.00
20620;BME280;10469;42.720;23.252;2023-03-18T07:27:23;95259.22;;;4.23;100.00
20620;BME280;10469;42.720;23.252;2023-03-18T07:29:49;95283.69;;;4.40;100.00
20620;BME280;10469;42.720;23.252;2023-03-18T07:32:15;95283.84;;;4.17;100.00
20620;BME280;10469;42.720;23.252;2023-03-18T07:34:43;95281.03;;;4.04;100.00
20620;BME280;10469;42.720;23.252;2023-03-18T07:37:09;95258.56;;;5.07;100.00
20620;BME280;10469;42.720;23.252;2023-03-18T07:39:34;95278.22;;;7.11;100.00
20620;BME280;10469;42.720;23.252;2023-03-18T07:42:01;95275.34;;;7.39;100.00
20620;BME280;10469;42.720;23.252;2023-03-18T07:44:27;95288.16;;;7.89;100.00
20620;BME280;10469;42.720;23.252;2023-03-18T07:46:52;95275.34;;;9.50;100.00
20620;BME280;10469;42.720;23.252;2023-03-18T07:49:18;95274.28;;;8.38;100.00
20620;BME280;10469;42.720;23.252;2023-03-18T07:51:43;95268.03;;;10.19;100.00
20620;BME280;10469;42.720;23.252;2023-03-18T07:54:09;95271.16;;;7.83;100.00
20620;BME280;10469;42.720;23.252;2023-03-18T07:56:35;95230.66;;;7.93;100.00
20620;BME280;10469;42.720;23.252;2023-03-18T07:59:02;95269.59;;;11.05;100.00
20620;BME280;10469;42.720;23.252;2023-03-18T08:01:28;95259.34;;;11.26;97.53
20620;BME280;10469;42.720;23.252;2023-03-18T08:03:53;95256.78;;;10.77;94.82
20620;BME280;10469;42.720;23.252;2023-03-18T08:06:21;95260.31;;;10.60;91.90
20620;BME280;10469;42.720;23.252;2023-03-18T08:08:47;95259.22;;;9.75;97.78
20620;BME280;10469;42.720;23.252;2023-03-18T08:11:13;95240.41;;;11.09;93.15
20620;BME280;10469;42.720;23.252;2023-03-18T08:13:51;95257.75;;;11.37;89.94
20620;BME280;10469;42.720;23.252;2023-03-18T08:16:16;95260.13;;;9.88;97.24
20620;BME280;10469;42.720;23.252;2023-03-18T08:18:43;95245.03;;;12.43;79.72
20620;BME280;10469;42.720;23.252;2023-03-18T08:21:09;95235.19;;;11.61;77.46
20620;BME280;10469;42.720;23.252;2023-03-18T08:23:36;95254.09;;;10.47;92.49
20620;BME280;10469;42.720;23.252;2023-03-18T08:26:02;95236.34;;;9.36;93.71
20620;BME280;10469;42.720;23.252;2023-03-18T08:28:30;95222.50;;;10.79;92.65
20620;BME280;10469;42.720;23.252;2023-03-18T08:30:57;95266.81;;;13.44;79.46
20620;BME280;10469;42.720;23.252;2023-03-18T08:33:26;95266.50;;;10.60;85.95
20620;BME280;10469;42.720;23.252;2023-03-18T08:35:53;95265.03;;;11.06;88.91
20620;BME280;10469;42.720;23.252;2023-03-18T08:38:20;95224.91;;;11.81;78.57
20620;BME280;10469;42.720;23.252;2023-03-18T08:40:46;95258.38;;;12.38;76.60
20620;BME280;10469;42.720;23.252;2023-03-18T08:43:12;95228.25;;;14.87;62.71
20620;BME280;10469;42.720;23.252;2023-03-18T08:45:38;95247.91;;;16.63;64.80
20620;BME280;10469;42.720;23.252;2023-03-18T08:48:04;95249.03;;;15.72;58.82
20620;BME280;10469;42.720;23.252;2023-03-18T08:50:29;95249.09;;;16.93;54.35
20620;BME280;10469;42.720;23.252;2023-03-18T08:52:56;95251.81;;;14.03;53.72
20620;BME280;10469;42.720;23.252;2023-03-18T08:55:30;95239.56;;;16.17;49.48
20620;BME280;10469;42.720;23.252;2023-03-18T08:57:56;95239.16;;;17.60;45.60
20620;BME280;10469;42.720;23.252;2023-03-18T09:00:23;95251.88;;;15.61;47.55
20620;BME280;10469;42.720;23.252;2023-03-18T09:02:50;95244.19;;;15.42;50.73
20620;BME280;10469;42.720;23.252;2023-03-18T09:05:16;95229.09;;;17.91;43.04
20620;BME280;10469;42.720;23.252;2023-03-18T09:07:42;95241.84;;;15.56;45.43
20620;BME280;10469;42.720;23.252;2023-03-18T09:10:08;95248.09;;;14.75;50.01
20620;BME280;10469;42.720;23.252;2023-03-18T09:12:37;95246.06;;;15.42;46.62
20620;BME280;10469;42.720;23.252;2023-03-18T09:15:02;95218.91;;;16.01;43.86
20620;BME280;10469;42.720;23.252;2023-03-18T09:17:30;95238.31;;;17.95;40.91
20620;BME280;10469;42.720;23.252;2023-03-18T09:19:56;95215.47;;;19.99;35.55
20620;BME280;10469;42.720;23.252;2023-03-18T09:22:22;95233.91;;;20.07;34.44
20620;BME280;10469;42.720;23.252;2023-03-18T09:24:48;95244.50;;;17.03;37.80
20620;BME280;10469;42.720;23.252;2023-03-18T09:27:14;95241.56;;;17.30;38.70
20620;BME280;10469;42.720;23.252;2023-03-18T09:29:39;95245.00;;;16.27;40.87
20620;BME280;10469;42.720;23.252;2023-03-18T09:32:06;95239.31;;;16.87;41.37
20620;BME280;10469;42.720;23.252;2023-03-18T09:34:32;95241.03;;;17.23;37.52
20620;BME280;10469;42.720;23.252;2023-03-18T09:36:58;95239.59;;;19.42;35.69
20620;BME280;10469;42.720;23.252;2023-03-18T09:39:24;95236.03;;;19.47;33.23
20620;BME280;10469;42.720;23.252;2023-03-18T09:42:08;95225.44;;;16.63;38.25
20620;BME280;10469;42.720;23.252;2023-03-18T09:44:37;95228.00;;;17.92;38.27
20620;BME280;10469;42.720;23.252;2023-03-18T09:50:14;95232.34;;;17.72;36.80
20620;BME280;10469;42.720;23.252;2023-03-18T09:55:44;95185.47;;;17.11;37.26
20620;BME280;10469;42.720;23.252;2023-03-18T10:00:56;95206.06;;;17.58;34.79
20620;BME280;10469;42.720;23.252;2023-03-18T10:03:34;95222.59;;;17.71;35.53
20620;BME280;10469;42.720;23.252;2023-03-18T10:09:07;95224.78;;;17.85;35.15
20620;BME280;10469;42.720;23.252;2023-03-18T10:11:48;95218.00;;;17.82;34.92
20620;BME280;10469;42.720;23.252;2023-03-18T10:17:19;95225.88;;;17.27;36.24
20620;BME280;10469;42.720;23.252;2023-03-18T10:19:51;95218.63;;;18.54;34.63
20620;BME280;10469;42.720;23.252;2023-03-18T10:25:04;95207.41;;;17.70;32.75
20620;BME280;10469;42.720;23.252;2023-03-18T10:33:58;95220.16;;;17.39;33.91
20620;BME280;10469;42.720;23.252;2023-03-18T10:36:48;95221.44;;;18.23;32.94
20620;BME280;10469;42.720;23.252;2023-03-18T10:39:17;95210.72;;;19.46;31.70
20620;BME280;10469;42.720;23.252;2023-03-18T10:41:49;95208.50;;;17.85;32.88
20620;BME280;10469;42.720;23.252;2023-03-18T10:44:26;95204.16;;;14.80;37.50
20620;BME280;10469;42.720;23.252;2023-03-18T10:47:03;95219.38;;;13.43;42.86
20620;BME280;10469;42.720;23.252;2023-03-18T10:49:47;95219.81;;;10.79;49.24
20620;BME280;10469;42.720;23.252;2023-03-18T10:52:33;95219.75;;;10.98;55.69
20620;BME280;10469;42.720;23.252;2023-03-18T10:55:02;95219.09;;;10.72;58.64
20620;BME280;10469;42.720;23.252;2023-03-18T10:57:28;95205.94;;;10.83;57.56
20620;BME280;10469;42.720;23.252;2023-03-18T10:59:54;95219.53;;;10.69;58.83
20620;BME280;10469;42.720;23.252;2023-03-18T11:04:55;95190.38;;;9.21;65.61
20620;BME280;10469;42.720;23.252;2023-03-18T11:07:26;95213.81;;;9.44;66.06
20620;BME280;10469;42.720;23.252;2023-03-18T11:09:53;95213.00;;;9.00;69.94
20620;BME280;10469;42.720;23.252;2023-03-18T11:12:27;95214.84;;;9.24;64.53
20620;BME280;10469;42.720;23.252;2023-03-18T11:14:53;95216.25;;;9.02;67.04
20620;BME280;10469;42.720;23.252;2023-03-18T11:20:05;95220.34;;;9.04;69.65
20620;BME280;10469;42.720;23.252;2023-03-18T11:22:33;95205.94;;;9.05;65.63
20620;BME280;10469;42.720;23.252;2023-03-18T11:25:13;95211.44;;;9.36;60.58
20620;BME280;10469;42.720;23.252;2023-03-18T11:27:46;95214.19;;;10.21;58.90
20620;BME280;10469;42.720;23.252;2023-03-18T11:30:19;95207.06;;;11.28;50.80
20620;BME280;10469;42.720;23.252;2023-03-18T11:32:49;95210.41;;;10.89;47.28
20620;BME280;10469;42.720;23.252;2023-03-18T11:35:22;95185.47;;;11.70;47.36
20620;BME280;10469;42.720;23.252;2023-03-18T11:37:48;95193.88;;;13.67;40.77
20620;BME280;10469;42.720;23.252;2023-03-18T11:40:28;95200.38;;;13.71;38.26
20620;BME280;10469;42.720;23.252;2023-03-18T11:42:58;95185.00;;;14.54;36.72
20620;BME280;10469;42.720;23.252;2023-03-18T11:47:51;95174.22;;;14.82;35.61
20620;BME280;10469;42.720;23.252;2023-03-18T11:50:20;95167.88;;;13.78;36.45
20620;BME280;10469;42.720;23.252;2023-03-18T11:52:54;95180.34;;;15.36;34.62
20620;BME280;10469;42.720;23.252;2023-03-18T12:01:09;95167.69;;;14.28;36.37
20620;BME280;10469;42.720;23.252;2023-03-18T12:04:12;95184.38;;;14.25;37.02
20620;BME280;10469;42.720;23.252;2023-03-18T12:07:13;95193.94;;;14.55;36.43
20620;BME280;10469;42.720;23.252;2023-03-18T12:09:47;95197.78;;;13.60;37.07
20620;BME280;10469;42.720;23.252;2023-03-18T12:14:55;95172.56;;;11.96;40.17
20620;BME280;10469;42.720;23.252;2023-03-18T12:17:42;95179.78;;;12.64;38.36
20620;BME280;10469;42.720;23.252;2023-03-18T12:20:48;95193.47;;;13.08;35.14
20620;BME280;10469;42.720;23.252;2023-03-18T12:32:34;95184.59;;;11.81;41.05
20620;BME280;10469;42.720;23.252;2023-03-18T12:35:27;95165.13;;;10.80;41.06
20620;BME280;10469;42.720;23.252;2023-03-18T12:43:47;95185.56;;;9.66;43.53
20620;BME280;10469;42.720;23.252;2023-03-18T12:46:35;95204.03;;;9.56;45.35
20620;BME280;10469;42.720;23.252;2023-03-18T12:49:16;95197.03;;;9.55;46.04
20620;BME280;10469;42.720;23.252;2023-03-18T12:51:49;95191.03;;;9.60;46.58
20620;BME280;10469;42.720;23.252;2023-03-18T12:54:32;95196.00;;;9.56;44.89
20620;BME280;10469;42.720;23.252;2023-03-18T12:57:06;95179.56;;;9.71;44.38
20620;BME280;10469;42.720;23.252;2023-03-18T12:59:47;95187.81;;;9.33;44.81
20620;BME280;10469;42.720;23.252;2023-03-18T13:02:57;95148.38;;;9.21;44.41
20620;BME280;10469;42.720;23.252;2023-03-18T13:16:50;95184.25;;;9.14;44.87
20620;BME280;10469;42.720;23.252;2023-03-18T13:19:17;95194.03;;;9.45;45.61
20620;BME280;10469;42.720;23.252;2023-03-18T13:21:55;95184.38;;;9.25;46.83
20620;BME280;10469;42.720;23.252;2023-03-18T13:43:29;95196.72;;;10.00;45.31
20620;BME280;10469;42.720;23.252;2023-03-18T13:45:57;95164.13;;;10.03;43.87
20620;BME280;10469;42.720;23.252;2023-03-18T13:48:33;95167.50;;;9.98;44.64
20620;BME280;10469;42.720;23.252;2023-03-18T13:51:18;95161.59;;;10.08;43.77
20620;BME280;10469;42.720;23.252;2023-03-18T13:53:45;95163.69;;;10.24;44.48
20620;BME280;10469;42.720;23.252;2023-03-18T14:02:28;95160.84;;;10.19;43.26
20620;BME280;10469;42.720;23.252;2023-03-18T14:04:55;95171.13;;;10.04;43.93
20620;BME280;10469;42.720;23.252;2023-03-18T14:07:23;95161.41;;;10.21;43.22
20620;BME280;10469;42.720;23.252;2023-03-18T14:20:16;95170.78;;;9.64;43.99
20620;BME280;10469;42.720;23.252;2023-03-18T14:22:47;95169.34;;;9.79;43.77
20620;BME280;10469;42.720;23.252;2023-03-18T14:25:20;95147.88;;;9.86;44.45
20620;BME280;10469;42.720;23.252;2023-03-18T14:27:57;95160.59;;;9.91;43.90
20620;BME280;10469;42.720;23.252;2023-03-18T16:17:31;95257.63;;;7.71;50.85
20620;BME280;10469;42.720;23.252;2023-03-18T16:19:58;95246.38;;;7.56;50.86
20620;BME280;10469;42.720;23.252;2023-03-18T16:22:24;95251.53;;;7.44;51.17
20620;BME280;10469;42.720;23.252;2023-03-18T16:24:50;95261.78;;;7.41;51.74
20620;BME280;10469;42.720;23.252;2023-03-18T16:27:36;95256.47;;;7.27;52.39
20620;BME280;10469;42.720;23.252;2023-03-18T16:32:49;95260.97;;;7.27;54.18
20620;BME280;10469;42.720;23.252;2023-03-18T16:35:21;95265.09;;;7.23;55.04
20620;BME280;10469;42.720;23.252;2023-03-18T16:37:47;95272.06;;;7.17;56.00
20620;BME280;10469;42.720;23.252;2023-03-18T16:40:19;95273.91;;;7.10;57.12
20620;BME280;10469;42.720;23.252;2023-03-18T16:42:45;95262.59;;;6.95;58.02
20620;BME280;10469;42.720;23.252;2023-03-18T16:45:16;95284.78;;;6.95;59.26
20620;BME280;10469;42.720;23.252;2023-03-18T16:47:47;95282.94;;;6.96;59.82
20620;BME280;10469;42.720;23.252;2023-03-18T16:50:19;95287.66;;;6.87;60.96
20620;BME280;10469;42.720;23.252;2023-03-18T16:52:46;95278.59;;;6.75;62.10
20620;BME280;10469;42.720;23.252;2023-03-18T16:55:14;95292.31;;;6.72;62.66
20620;BME280;10469;42.720;23.252;2023-03-18T16:57:57;95294.97;;;6.72;63.02
20620;BME280;10469;42.720;23.252;2023-03-18T17:00:29;95297.03;;;6.57;64.32
20620;BME280;10469;42.720;23.252;2023-03-18T17:02:59;95291.25;;;6.53;64.48
20620;BME280;10469;42.720;23.252;2023-03-18T17:05:26;95290.41;;;6.46;64.57
20620;BME280;10469;42.720;23.252;2023-03-18T17:07:52;95309.44;;;6.43;65.60
20620;BME280;10469;42.720;23.252;2023-03-18T17:10:20;95312.31;;;6.41;65.94
20620;BME280;10469;42.720;23.252;2023-03-18T17:13:01;95300.41;;;6.31;66.56
20620;BME280;10469;42.720;23.252;2023-03-18T17:15:33;95316.19;;;6.32;67.24
20620;BME280;10469;42.720;23.252;2023-03-18T17:18:02;95299.13;;;6.20;68.03
20620;BME280;10469;42.720;23.252;2023-03-18T17:20:29;95318.97;;;6.17;69.44
20620;BME280;10469;42.720;23.252;2023-03-18T17:22:57;95319.56;;;6.13;70.01
20620;BME280;10469;42.720;23.252;2023-03-18T17:25:25;95316.91;;;6.13;71.10
20620;BME280;10469;42.720;23.252;2023-03-18T17:27:58;95320.44;;;6.13;72.03
20620;BME280;10469;42.720;23.252;2023-03-18T17:30:33;95285.78;;;5.78;72.06
20620;BME280;10469;42.720;23.252;2023-03-18T17:32:59;95328.09;;;5.95;73.58
20620;BME280;10469;42.720;23.252;2023-03-18T17:35:26;95328.66;;;5.90;74.22
20620;BME280;10469;42.720;23.252;2023-03-18T17:37:52;95334.41;;;5.87;74.84
20620;BME280;10469;42.720;23.252;2023-03-18T17:40:19;95320.97;;;5.74;76.32
20620;BME280;10469;42.720;23.252;2023-03-18T17:42:46;95339.59;;;5.74;77.35
20620;BME280;10469;42.720;23.252;2023-03-18T17:45:29;95339.56;;;5.67;78.27
20620;BME280;10469;42.720;23.252;2023-03-18T17:48:15;95354.53;;;5.68;78.53
20620;BME280;10469;42.720;23.252;2023-03-18T17:50:45;95327.38;;;5.51;79.20
20620;BME280;10469;42.720;23.252;2023-03-18T17:53:38;95360.78;;;5.54;80.80
20620;BME280;10469;42.720;23.252;2023-03-18T17:56:07;95366.09;;;5.54;81.64
20620;BME280;10469;42.720;23.252;2023-03-18T17:58:35;95364.00;;;5.49;82.41
20620;BME280;10469;42.720;23.252;2023-03-18T18:01:12;95358.00;;;5.41;82.46